»·PEaware :: N2MZ KSNA-KSMO

N2MZ :: KSNA-KSMO

FLIGHT INFORMATION

Flight Status: Arrived
Operator: Privately registered:
United States
More flights under this callsign
Pilot: Mike Z. (25595)
Aircraft: CESSNA 172 SKYHAWK
(C172)
More flights by this aircraft type
Origin: KSNA John Wayne-Orange Co
United States
Destination: KSMO Santa Monica Mun
United States
More flights between these airports :: More routes between these airports
Route: +SLI V8 POXKU V363 BAYJY V186 DARTS
File this flight plan on PilotEdge
Remarks: TEC Route CSTP9
Altitude:
(Current/Filed)
4,000ft
Speed:
(Current/Filed)
115kts
Departed: 11-Sep-19 05:51 PM
Arrived: 11-Sep-19 06:35 PM
Distance/Time
Traveled:
36nm/0:44
Distance/Time
To Go:
Arrived

Flight Plot

Page will automatically refresh every two minutes.


Map Options




Map Legend


Flown Route
Filed Route
Departure Airport
Arrival Airport
Navaid (VOR, NDB)
Fix

Horizontal Profiles

Position Reports

Time Latitude Longitude Heading Altitude Ground
Speed
11-Sep-19 17:38 33.676205 -117.871104 212 60ft 0kts
11-Sep-19 17:39 33.676205 -117.871104 212 60ft 0kts
11-Sep-19 17:40 33.676205 -117.871104 212 60ft 0kts
11-Sep-19 17:41 33.676205 -117.871104 212 60ft 0kts
11-Sep-19 17:42 33.676205 -117.871104 212 60ft 0kts
11-Sep-19 17:43 33.676205 -117.871104 212 60ft 0kts
11-Sep-19 17:44 33.676205 -117.871104 212 60ft 0kts
11-Sep-19 17:45 33.676200 -117.871107 204 60ft 0kts
11-Sep-19 17:46 33.677908 -117.868887 28 60ft 17kts
11-Sep-19 17:47 33.681249 -117.866507 125 60ft 6kts
11-Sep-19 17:47 33.681198 -117.866407 118 60ft 0kts
11-Sep-19 17:49 33.681198 -117.866407 118 60ft 0kts
11-Sep-19 17:50 33.680709 -117.865705 179 60ft 7kts
11-Sep-19 17:50 33.668858 -117.874126 209 341ft 76kts
11-Sep-19 17:51 33.654628 -117.891520 240 1102ft 76kts
11-Sep-19 17:53 33.643341 -117.917028 275 2002ft 72kts
11-Sep-19 17:53 33.656590 -117.931865 321 2510ft 86kts
11-Sep-19 17:54 33.676290 -117.948290 321 3173ft 86kts
11-Sep-19 17:55 33.696092 -117.965932 319 3785ft 88kts
11-Sep-19 17:56 33.715192 -117.984682 316 4390ft 87kts
11-Sep-19 17:57 33.733092 -118.003953 316 4944ft 89kts
11-Sep-19 17:58 33.752417 -118.025332 316 5422ft 94kts
11-Sep-19 17:59 33.771121 -118.046409 318 5918ft 88kts
11-Sep-19 18:00 33.794718 -118.052409 60 6016ft 112kts
11-Sep-19 18:01 33.803398 -118.017060 82 6014ft 109kts
11-Sep-19 18:02 33.808896 -117.981002 86 6014ft 109kts
11-Sep-19 18:03 33.813190 -117.944553 82 6014ft 109kts
11-Sep-19 18:04 33.820321 -117.908557 78 6013ft 110kts
11-Sep-19 18:05 33.828725 -117.872816 77 6013ft 110kts
11-Sep-19 18:06 33.837522 -117.837195 76 6012ft 110kts
11-Sep-19 18:07 33.846474 -117.801483 75 6011ft 111kts
11-Sep-19 18:08 33.870668 -117.785383 5 6010ft 120kts
11-Sep-19 18:09 33.904227 -117.782954 5 6008ft 121kts
11-Sep-19 18:10 33.938232 -117.781985 3 5982ft 123kts
11-Sep-19 18:11 33.972166 -117.781874 2 6003ft 121kts
11-Sep-19 18:12 34.004583 -117.788866 302 6006ft 122kts
11-Sep-19 18:13 34.020153 -117.825223 294 6009ft 122kts
11-Sep-19 18:14 34.029871 -117.863373 266 6011ft 119kts
11-Sep-19 18:15 34.030299 -117.903693 283 6005ft 122kts
11-Sep-19 18:16 34.050266 -117.937058 305 6011ft 123kts
11-Sep-19 18:17 34.066386 -117.973287 291 6011ft 122kts
11-Sep-19 18:18 34.079623 -118.010778 289 6011ft 121kts
11-Sep-19 18:19 34.092250 -118.049090 289 5902ft 129kts
11-Sep-19 18:20 34.104340 -118.086627 289 5437ft 128kts
11-Sep-19 18:21 34.116958 -118.126924 287 4933ft 128kts
11-Sep-19 18:22 34.129770 -118.167135 288 4490ft 124kts
11-Sep-19 18:23 34.141963 -118.204990 287 4181ft 118kts
11-Sep-19 18:24 34.151959 -118.238856 286 4304ft 118kts
11-Sep-19 18:25 34.142405 -118.271446 233 3994ft 119kts
11-Sep-19 18:26 34.121764 -118.303029 228 3493ft 118kts
11-Sep-19 18:27 34.104773 -118.329494 227 2977ft 84kts
11-Sep-19 18:28 34.088662 -118.355819 227 2644ft 100kts
11-Sep-19 18:29 34.074507 -118.382373 233 2057ft 86kts
11-Sep-19 18:30 34.060555 -118.399323 218 1742ft 71kts
11-Sep-19 18:31 34.046399 -118.415255 218 1269ft 70kts
11-Sep-19 18:32 34.032636 -118.431641 222 715ft 67kts
11-Sep-19 18:33 34.019715 -118.446753 224 213ft 56kts
11-Sep-19 18:34 34.014818 -118.453059 306 133ft 6kts
11-Sep-19 18:35 34.015014 -118.453262 339 133ft 6kts
11-Sep-19 18:36 34.016389 -118.452254 234 139ft 10kts
11-Sep-19 18:37 34.015936 -118.452701 130 138ft 0kts
11-Sep-19 18:38 34.015936 -118.452701 130 138ft 0kts
11-Sep-19 18:39 34.015936 -118.452701 130 138ft 0kts

Navigation Log

Ident Type
Flight plan parsing failed, navigation log unavailable